Und Birlik — TCCA6 — position and weather

sailwx.info

Track history (hours):
 
Tides and Currents Weather Stations Pressure Air Temp Water Temp Dewpoint Dewpoint Depression Visibility Wind Speed Wind Dir Waves Ship Positions

Und Birlik

Last reported at 2018-Jan-11 13:43 UTC. Time now 2018-Jan-18 04:08 UTC.
Position N 37°08' E 023°46'.

Length 193 m; draft 5.7 m.

Type: Ship (hazmat cat A). MMSI: 271000662.

Date/timePositionNaut miles runAvg speedWind from/ knotsBaromVisibWave heightAir tempDewpointWater temp
2018-Jan-11 13:43N 37°08' E 023°46'2120.7
2018-Jan-11 12:43N 37°26' E 024°00'620.8
2018-Jan-11 12:26N 37°31' E 024°05'1620.9
2018-Jan-11 11:41N 37°44' E 024°16'1221.0
2018-Jan-11 11:05N 37°52' E 024°28'320.6
2018-Jan-11 10:57N 37°54' E 024°30'  
2018-Jan-08 21:05N 39°54' E 025°57'220.2
2018-Jan-08 20:58N 39°52' E 025°55'7120.6
2018-Jan-08 17:30N 38°48' E 025°12'3020.9
2018-Jan-08 16:03N 38°22' E 024°54'220.8
2018-Jan-08 15:58N 38°20' E 024°53'2320.8
2018-Jan-08 14:51N 37°60' E 024°39'720.7
2018-Jan-08 14:31N 37°53' E 024°35'1020.6
2018-Jan-08 14:00N 37°44' E 024°30'1020.4
2018-Jan-08 13:31N 37°35' E 024°24'1020.3
2018-Jan-08 13:01N 37°27' E 024°17'1020.9
2018-Jan-08 12:31N 37°18' E 024°09'1020.1
2018-Jan-08 12:01N 37°10' E 024°01'1020.3
2018-Jan-08 11:31N 37°02' E 023°54'1020.6
2018-Jan-08 11:01N 36°54' E 023°46'1020.6
2018-Jan-08 10:31N 36°45' E 023°38'1220.5
2018-Jan-08 09:56N 36°36' E 023°29'920.5
2018-Jan-08 09:31N 36°30' E 023°22'64918.3
2018-Jan-06 21:56N 44°28' E 013°44'920.1
2018-Jan-06 21:30N 44°35' E 013°37'1020.1
2018-Jan-06 21:00N 44°44' E 013°30'1020.2
2018-Jan-06 20:30N 44°52' E 013°22'1020.3
2018-Jan-06 20:00N 45°00' E 013°14'1020.3
2018-Jan-06 19:30N 45°09' E 013°06'1020.2
2018-Jan-06 19:00N 45°19' E 013°04'1019.4
2018-Jan-06 18:30N 45°27' E 013°10'1020.0
2018-Jan-06 18:00N 45°34' E 013°21'1020.0
2018-Jan-06 17:30N 45°38' E 013°35'714.6
2018-Jan-06 17:00N 45°39' E 013°45'0 0.0
2018-Jan-06 16:27N 45°39' E 013°45'0 0.0
2018-Jan-06 16:00N 45°39' E 013°45'0 0.0
2018-Jan-06 15:21N 45°39' E 013°45'0 0.0
2018-Jan-06 15:00N 45°39' E 013°45'0 0.0
2018-Jan-06 14:30N 45°39' E 013°45'0 0.0
2018-Jan-06 13:51N 45°39' E 013°45'0 0.0
2018-Jan-06 13:30N 45°39' E 013°45'0 0.0
2018-Jan-06 12:54N 45°39' E 013°45'0 0.0
2018-Jan-06 12:30N 45°39' E 013°45'0 0.0
2018-Jan-06 11:57N 45°39' E 013°45'0 0.0
2018-Jan-06 11:30N 45°39' E 013°45'0 0.0
2018-Jan-06 11:00N 45°39' E 013°45'0 0.0
2018-Jan-06 10:30N 45°39' E 013°45'0 0.0
2018-Jan-06 09:54N 45°39' E 013°45'0 0.0
2018-Jan-06 09:30N 45°39' E 013°45'2 3.3
2018-Jan-06 09:01N 45°39' E 013°43'816.8
2018-Jan-06 08:30N 45°35' E 013°32'1020.3
2018-Jan-06 08:00N 45°29' E 013°21'918.7
2018-Jan-06 07:30N 45°21' E 013°13'1020.7
2018-Jan-06 07:00N 45°11' E 013°17'1020.8
2018-Jan-06 06:30N 45°01' E 013°22'1020.0
2018-Jan-06 06:00N 44°52' E 013°29'511.0
2018-Jan-06 05:30N 44°48' E 013°33'612.7
2018-Jan-06 05:00N 44°42' E 013°37'612.6
2018-Jan-06 04:30N 44°37' E 013°42'612.5
2018-Jan-06 04:00N 44°32' E 013°47'612.6
2018-Jan-06 03:30N 44°26' E 013°52'612.7
2018-Jan-06 03:00N 44°21' E 013°57'612.6
2018-Jan-06 02:30N 44°16' E 014°01'61616.6
2018-Jan-04 13:16N 37°08' E 023°47'1721.2
2018-Jan-04 12:27N 37°23' E 023°59'921.0
2018-Jan-04 12:00N 37°31' E 024°05'1021.2
2018-Jan-04 11:30N 37°39' E 024°12'1320.8
2018-Jan-04 10:53N 37°49' E 024°23'820.6
2018-Jan-04 10:30N 37°54' E 024°31'  
2018-Jan-01 15:00N 37°57' E 024°37'1020.0
2018-Jan-01 14:30N 37°48' E 024°32'1020.0
2018-Jan-01 14:01N 37°39' E 024°27'  
Track history (hours):
 
Tides and Currents Weather Stations Pressure Air Temp Water Temp Dewpoint Dewpoint Depression Visibility Wind Speed Wind Dir Waves Ship Positions

Und Birlik

Last reported at 2018-Jan-11 13:43 UTC. Time now 2018-Jan-18 04:08 UTC.
Position N 37°08' E 023°46'.

Length 193 m; draft 5.7 m.

Type: Ship (hazmat cat A). MMSI: 271000662.

Date/timePositionNaut miles runAvg speedWind from/ knotsBaromVisibWave heightAir tempDewpointWater temp
2018-Jan-11 13:43N 37°08' E 023°46'2120.7
2018-Jan-11 12:43N 37°26' E 024°00'620.8
2018-Jan-11 12:26N 37°31' E 024°05'1620.9
2018-Jan-11 11:41N 37°44' E 024°16'1221.0
2018-Jan-11 11:05N 37°52' E 024°28'320.6
2018-Jan-11 10:57N 37°54' E 024°30'  
2018-Jan-08 21:05N 39°54' E 025°57'220.2
2018-Jan-08 20:58N 39°52' E 025°55'7120.6
2018-Jan-08 17:30N 38°48' E 025°12'3020.9
2018-Jan-08 16:03N 38°22' E 024°54'220.8
2018-Jan-08 15:58N 38°20' E 024°53'2320.8
2018-Jan-08 14:51N 37°60' E 024°39'720.7
2018-Jan-08 14:31N 37°53' E 024°35'1020.6
2018-Jan-08 14:00N 37°44' E 024°30'1020.4
2018-Jan-08 13:31N 37°35' E 024°24'1020.3
2018-Jan-08 13:01N 37°27' E 024°17'1020.9
2018-Jan-08 12:31N 37°18' E 024°09'1020.1
2018-Jan-08 12:01N 37°10' E 024°01'1020.3
2018-Jan-08 11:31N 37°02' E 023°54'1020.6
2018-Jan-08 11:01N 36°54' E 023°46'1020.6
2018-Jan-08 10:31N 36°45' E 023°38'1220.5
2018-Jan-08 09:56N 36°36' E 023°29'920.5
2018-Jan-08 09:31N 36°30' E 023°22'64918.3
2018-Jan-06 21:56N 44°28' E 013°44'920.1
2018-Jan-06 21:30N 44°35' E 013°37'1020.1
2018-Jan-06 21:00N 44°44' E 013°30'1020.2
2018-Jan-06 20:30N 44°52' E 013°22'1020.3
2018-Jan-06 20:00N 45°00' E 013°14'1020.3
2018-Jan-06 19:30N 45°09' E 013°06'1020.2
2018-Jan-06 19:00N 45°19' E 013°04'1019.4
2018-Jan-06 18:30N 45°27' E 013°10'1020.0
2018-Jan-06 18:00N 45°34' E 013°21'1020.0
2018-Jan-06 17:30N 45°38' E 013°35'714.6
2018-Jan-06 17:00N 45°39' E 013°45'0 0.0
2018-Jan-06 16:27N 45°39' E 013°45'0 0.0
2018-Jan-06 16:00N 45°39' E 013°45'0 0.0
2018-Jan-06 15:21N 45°39' E 013°45'0 0.0
2018-Jan-06 15:00N 45°39' E 013°45'0 0.0
2018-Jan-06 14:30N 45°39' E 013°45'0 0.0
2018-Jan-06 13:51N 45°39' E 013°45'0 0.0
2018-Jan-06 13:30N 45°39' E 013°45'0 0.0
2018-Jan-06 12:54N 45°39' E 013°45'0 0.0
2018-Jan-06 12:30N 45°39' E 013°45'0 0.0
2018-Jan-06 11:57N 45°39' E 013°45'0 0.0
2018-Jan-06 11:30N 45°39' E 013°45'0 0.0
2018-Jan-06 11:00N 45°39' E 013°45'0 0.0
2018-Jan-06 10:30N 45°39' E 013°45'0 0.0
2018-Jan-06 09:54N 45°39' E 013°45'0 0.0
2018-Jan-06 09:30N 45°39' E 013°45'2 3.3
2018-Jan-06 09:01N 45°39' E 013°43'816.8
2018-Jan-06 08:30N 45°35' E 013°32'1020.3
2018-Jan-06 08:00N 45°29' E 013°21'918.7
2018-Jan-06 07:30N 45°21' E 013°13'1020.7
2018-Jan-06 07:00N 45°11' E 013°17'1020.8
2018-Jan-06 06:30N 45°01' E 013°22'1020.0
2018-Jan-06 06:00N 44°52' E 013°29'511.0
2018-Jan-06 05:30N 44°48' E 013°33'612.7
2018-Jan-06 05:00N 44°42' E 013°37'612.6
2018-Jan-06 04:30N 44°37' E 013°42'612.5
2018-Jan-06 04:00N 44°32' E 013°47'612.6
2018-Jan-06 03:30N 44°26' E 013°52'612.7
2018-Jan-06 03:00N 44°21' E 013°57'612.6
2018-Jan-06 02:30N 44°16' E 014°01'61616.6
2018-Jan-04 13:16N 37°08' E 023°47'1721.2
2018-Jan-04 12:27N 37°23' E 023°59'921.0
2018-Jan-04 12:00N 37°31' E 024°05'1021.2
2018-Jan-04 11:30N 37°39' E 024°12'1320.8
2018-Jan-04 10:53N 37°49' E 024°23'820.6
2018-Jan-04 10:30N 37°54' E 024°31'  
2018-Jan-01 15:00N 37°57' E 024°37'1020.0
2018-Jan-01 14:30N 37°48' E 024°32'1020.0
2018-Jan-01 14:01N 37°39' E 024°27'  

Dump ship's entire track history